Time;durP1;ratioP1;P1;durP2;ratioP2;P2;SDS_P1;SDS_P2;PMS_P1;PMS_P2;Temp;Humidity;BMP_temperature;BMP_pressure;BME280_temperature;BME280_humidity;BME280_pressure;Samples;Min_cycle;Max_cycle;Signal;HPM_P1;HPM_P2
2023/12/26 00:02:17;;;;;;;0.00;0.00;;;9.90;94.70;;;;;;5062159;28;20051;-72
2023/12/26 00:04:43;;;;;;;0.00;0.00;;;9.90;94.60;;;;;;5060089;28;20067;-71
2023/12/26 00:07:09;;;;;;;0.00;0.00;;;9.90;94.60;;;;;;5056958;28;20478;-72
2023/12/26 00:09:39;;;;;;;0.00;0.00;;;9.90;94.70;;;;;;5068767;28;20123;-72
2023/12/26 00:12:05;;;;;;;0.00;0.00;;;9.90;94.60;;;;;;5050138;28;20047;-72
2023/12/26 00:14:31;;;;;;;0.00;0.00;;;9.90;94.60;;;;;;5068840;28;20040;-72
2023/12/26 00:16:57;;;;;;;0.00;0.00;;;9.90;94.60;;;;;;5063243;28;20040;-71
2023/12/26 00:19:22;;;;;;;0.00;0.00;;;9.90;94.60;;;;;;5067588;28;20040;-72
2023/12/26 00:21:48;;;;;;;0.00;0.00;;;9.90;94.50;;;;;;5052038;28;20041;-72
2023/12/26 00:24:14;;;;;;;0.00;0.00;;;10.00;94.40;;;;;;5050580;28;20037;-72
2023/12/26 00:26:39;;;;;;;0.00;0.00;;;10.00;94.50;;;;;;5061816;28;20824;-72
2023/12/26 00:29:05;;;;;;;0.00;0.00;;;10.00;94.50;;;;;;5062972;28;20097;-73
2023/12/26 00:31:31;;;;;;;0.00;0.00;;;10.00;94.20;;;;;;5051741;28;20049;-72
2023/12/26 00:33:57;;;;;;;0.00;0.00;;;10.00;94.20;;;;;;5055127;28;20514;-72
2023/12/26 00:36:24;;;;;;;0.00;0.00;;;10.00;94.10;;;;;;5050022;28;20055;-72
2023/12/26 00:38:50;;;;;;;0.00;0.00;;;10.00;94.10;;;;;;5066887;28;20036;-72
2023/12/26 00:41:16;;;;;;;2.10;1.00;;;10.00;93.90;;;;;;5067573;28;20732;-72
2023/12/26 00:43:42;;;;;;;0.00;0.00;;;10.10;93.80;;;;;;5056720;28;20060;-72
2023/12/26 00:46:07;;;;;;;0.00;0.00;;;10.10;93.90;;;;;;5063584;28;20037;-72
2023/12/26 00:48:36;;;;;;;0.00;0.00;;;10.00;93.70;;;;;;5047170;28;20072;-72
2023/12/26 00:51:02;;;;;;;0.00;0.00;;;10.00;93.60;;;;;;5064105;28;20392;-72
2023/12/26 00:53:28;;;;;;;0.08;0.08;;;10.00;93.70;;;;;;5052327;28;20036;-72
2023/12/26 00:55:54;;;;;;;0.00;0.00;;;10.00;93.70;;;;;;5064142;28;20044;-72
2023/12/26 00:58:20;;;;;;;0.00;0.00;;;10.00;93.50;;;;;;5045681;28;20052;-72
2023/12/26 01:00:45;;;;;;;0.00;0.00;;;10.00;93.60;;;;;;5067620;28;20124;-72
2023/12/26 01:03:11;;;;;;;0.00;0.00;;;9.90;93.40;;;;;;5050434;28;20110;-72
2023/12/26 01:05:37;;;;;;;0.08;0.08;;;9.90;93.70;;;;;;5067685;28;20094;-73
2023/12/26 01:08:03;;;;;;;0.10;0.10;;;9.90;93.20;;;;;;5062626;28;20052;-72
2023/12/26 01:10:28;;;;;;;0.00;0.00;;;9.90;93.10;;;;;;5064294;28;20035;-73
2023/12/26 01:12:54;;;;;;;0.00;0.00;;;9.80;93.10;;;;;;5055755;28;20059;-72
2023/12/26 01:15:19;;;;;;;3.40;2.55;;;9.70;93.10;;;;;;5062248;28;20079;-72
2023/12/26 01:17:45;;;;;;;0.00;0.00;;;9.80;93.10;;;;;;5068384;28;20040;-72
2023/12/26 01:20:11;;;;;;;0.00;0.00;;;9.80;92.90;;;;;;5042002;28;20098;-72
2023/12/26 01:22:36;;;;;;;2.55;1.95;;;9.70;92.80;;;;;;5050126;28;20068;-72
2023/12/26 01:25:05;;;;;;;0.00;0.00;;;9.80;92.90;;;;;;5050582;28;20452;-72
2023/12/26 01:27:31;;;;;;;0.00;0.00;;;9.70;92.90;;;;;;5067677;28;20086;-72
2023/12/26 01:29:57;;;;;;;0.00;0.00;;;9.70;92.90;;;;;;5049623;28;20063;-72
2023/12/26 01:32:22;;;;;;;0.00;0.00;;;9.80;92.80;;;;;;5065605;28;20044;-72
2023/12/26 01:34:48;;;;;;;0.05;0.05;;;9.70;92.70;;;;;;5067577;28;20505;-72
2023/12/26 01:37:14;;;;;;;0.00;0.00;;;9.70;92.80;;;;;;5049140;28;20044;-72
2023/12/26 01:39:40;;;;;;;0.00;0.00;;;9.70;92.70;;;;;;5066364;28;20117;-72
2023/12/26 01:42:06;;;;;;;0.00;0.00;;;9.70;92.80;;;;;;5067843;28;20491;-73
2023/12/26 01:44:31;;;;;;;0.00;0.00;;;9.70;92.70;;;;;;5067066;28;20048;-73
2023/12/26 01:46:57;;;;;;;1.15;0.60;;;9.70;92.80;;;;;;5047004;28;20032;-72
2023/12/26 01:49:23;;;;;;;0.00;0.00;;;9.70;92.80;;;;;;5057847;28;20045;-72
2023/12/26 01:51:51;;;;;;;0.45;0.45;;;9.80;92.60;;;;;;5061708;28;20415;-72
2023/12/26 01:54:18;;;;;;;0.00;0.00;;;9.80;92.40;;;;;;5059718;28;20052;-72
2023/12/26 01:56:43;;;;;;;4.55;1.75;;;9.80;92.20;;;;;;5066164;28;20426;-72
2023/12/26 01:59:09;;;;;;;0.00;0.00;;;9.90;92.10;;;;;;5061645;28;20078;-73
2023/12/26 02:01:35;;;;;;;0.00;0.00;;;9.80;92.10;;;;;;5029803;28;20167;-73
2023/12/26 02:04:01;;;;;;;0.00;0.00;;;9.70;92.00;;;;;;5051120;28;20482;-72
2023/12/26 02:06:30;;;;;;;0.10;0.10;;;9.70;91.90;;;;;;5063499;28;20128;-72
2023/12/26 02:08:57;;;;;;;0.00;0.00;;;9.70;91.10;;;;;;5069576;28;20804;-73
2023/12/26 02:11:22;;;;;;;0.00;0.00;;;9.70;91.00;;;;;;5070317;28;20044;-72
2023/12/26 02:13:48;;;;;;;0.00;0.00;;;9.70;90.60;;;;;;5069465;28;20085;-73
2023/12/26 02:16:18;;;;;;;5.68;2.38;;;9.70;90.30;;;;;;5071387;28;20494;-73
2023/12/26 02:18:44;;;;;;;0.00;0.00;;;9.70;90.30;;;;;;5070318;28;20498;-72
2023/12/26 02:21:11;;;;;;;0.00;0.00;;;9.70;89.80;;;;;;5048964;28;20043;-72
2023/12/26 02:23:38;;;;;;;0.00;0.00;;;9.80;89.70;;;;;;5065862;28;20157;-71
2023/12/26 02:26:05;;;;;;;0.00;0.00;;;9.60;89.30;;;;;;5062405;28;20048;-73
2023/12/26 02:28:36;;;;;;;0.00;0.00;;;9.70;89.30;;;;;;5085549;28;20086;-72
2023/12/26 02:31:03;;;;;;;0.00;0.00;;;9.70;89.40;;;;;;5068560;28;20102;-72
2023/12/26 02:33:30;;;;;;;0.00;0.00;;;9.60;89.10;;;;;;5070169;28;20051;-72
2023/12/26 02:35:58;;;;;;;0.00;0.00;;;9.60;89.10;;;;;;5068048;28;20086;-72
2023/12/26 02:38:24;;;;;;;0.00;0.00;;;9.60;89.10;;;;;;5069732;28;20040;-73
2023/12/26 02:40:51;;;;;;;0.20;0.20;;;9.60;89.00;;;;;;5059826;28;20037;-73
2023/12/26 02:43:26;;;;;;;0.00;0.00;;;9.50;89.00;;;;;;5036029;28;20048;-72
2023/12/26 02:45:52;;;;;;;0.00;0.00;;;9.50;88.50;;;;;;5065332;28;20565;-72
2023/12/26 02:48:18;;;;;;;0.15;0.15;;;9.50;88.30;;;;;;5070905;28;20040;-72
2023/12/26 02:50:45;;;;;;;0.08;0.08;;;9.60;87.70;;;;;;5069125;28;20164;-72
2023/12/26 02:53:10;;;;;;;0.00;0.00;;;9.50;87.30;;;;;;5062547;28;20756;-72
2023/12/26 02:55:36;;;;;;;0.00;0.00;;;9.50;86.30;;;;;;5069367;28;20037;-72
2023/12/26 02:58:02;;;;;;;0.00;0.00;;;9.60;85.20;;;;;;5070132;28;20115;-72
2023/12/26 03:00:28;;;;;;;0.03;0.03;;;9.60;84.60;;;;;;5063855;28;20461;-72
2023/12/26 03:02:53;;;;;;;0.00;0.00;;;9.60;84.00;;;;;;5059314;28;20041;-72
2023/12/26 03:05:19;;;;;;;0.00;0.00;;;9.50;83.50;;;;;;5067864;28;20495;-72
2023/12/26 03:07:45;;;;;;;0.00;0.00;;;9.50;83.80;;;;;;5051582;28;20036;-72
2023/12/26 03:10:11;;;;;;;0.10;0.10;;;9.60;83.70;;;;;;5051324;28;20075;-72
2023/12/26 03:12:37;;;;;;;0.00;0.00;;;9.40;83.40;;;;;;5062575;28;20041;-72
2023/12/26 03:15:03;;;;;;;0.00;0.00;;;9.30;83.50;;;;;;5069077;28;20460;-73
2023/12/26 03:17:29;;;;;;;0.00;0.00;;;9.20;83.40;;;;;;5051772;28;20567;-73
2023/12/26 03:19:55;;;;;;;0.00;0.00;;;9.10;83.20;;;;;;5067578;28;20111;-72
2023/12/26 03:22:21;;;;;;;0.00;0.00;;;9.20;82.70;;;;;;5066232;28;20966;-72
2023/12/26 03:24:46;;;;;;;0.08;0.08;;;9.20;82.00;;;;;;5069588;28;20387;-72
2023/12/26 03:27:12;;;;;;;0.00;0.00;;;9.20;81.20;;;;;;5068574;28;20075;-72
2023/12/26 03:29:38;;;;;;;0.00;0.00;;;9.10;81.30;;;;;;5068500;28;20037;-72
2023/12/26 03:32:04;;;;;;;0.30;0.30;;;9.00;81.40;;;;;;5063348;28;20049;-73
2023/12/26 03:34:31;;;;;;;0.00;0.00;;;9.10;81.20;;;;;;5065837;28;20121;-72
2023/12/26 03:36:56;;;;;;;0.05;0.05;;;9.00;81.10;;;;;;5051631;28;20076;-73
2023/12/26 03:39:23;;;;;;;0.00;0.00;;;8.90;81.40;;;;;;5068243;28;20111;-72
2023/12/26 03:41:49;;;;;;;0.00;0.00;;;8.90;81.40;;;;;;5064838;28;20122;-72
2023/12/26 03:44:15;;;;;;;0.32;0.32;;;8.80;81.10;;;;;;5063352;28;20439;-72
2023/12/26 03:46:41;;;;;;;0.52;0.52;;;8.90;81.20;;;;;;5050026;28;20052;-72
2023/12/26 03:49:07;;;;;;;0.00;0.00;;;8.70;81.70;;;;;;5069103;28;20048;-72
2023/12/26 03:51:33;;;;;;;0.05;0.05;;;8.80;82.10;;;;;;5069068;28;20063;-72
2023/12/26 03:53:59;;;;;;;0.10;0.10;;;8.70;82.30;;;;;;5050752;28;20053;-72
2023/12/26 03:56:29;;;;;;;10.95;1.95;;;8.70;82.60;;;;;;5065999;28;20043;-72
2023/12/26 03:58:55;;;;;;;0.00;0.00;;;8.70;82.80;;;;;;5051171;28;20391;-72
2023/12/26 04:01:21;;;;;;;0.85;0.85;;;8.80;82.90;;;;;;5063616;28;20055;-71
2023/12/26 04:03:47;;;;;;;0.10;0.10;;;8.70;82.80;;;;;;5068937;28;20045;-71
2023/12/26 04:06:12;;;;;;;0.00;0.00;;;8.60;82.80;;;;;;5069101;28;20037;-72
2023/12/26 04:08:38;;;;;;;0.03;0.03;;;8.70;82.60;;;;;;5068332;28;20044;-72
2023/12/26 04:11:04;;;;;;;0.00;0.00;;;8.60;82.80;;;;;;5068524;28;20040;-73
2023/12/26 04:13:29;;;;;;;0.00;0.00;;;8.60;83.30;;;;;;5051255;28;20045;-72
2023/12/26 04:15:55;;;;;;;0.52;0.52;;;8.60;83.20;;;;;;5069457;28;20106;-72
2023/12/26 04:18:21;;;;;;;0.10;0.10;;;8.60;83.20;;;;;;5049300;28;20048;-71
2023/12/26 04:20:46;;;;;;;0.00;0.00;;;8.60;83.20;;;;;;5061478;28;20048;-72
2023/12/26 04:23:12;;;;;;;2.85;2.13;;;8.50;83.60;;;;;;5068919;28;20494;-72
2023/12/26 04:25:37;;;;;;;0.00;0.00;;;8.50;83.80;;;;;;5059985;28;20172;-72
2023/12/26 04:28:03;;;;;;;0.00;0.00;;;8.40;83.80;;;;;;5042891;28;20773;-72
2023/12/26 04:30:29;;;;;;;0.00;0.00;;;8.40;84.10;;;;;;5067989;28;20044;-72
2023/12/26 04:32:55;;;;;;;0.00;0.00;;;8.50;84.20;;;;;;5049850;28;20040;-72
2023/12/26 04:35:20;;;;;;;1.75;1.27;;;8.50;84.50;;;;;;5061367;28;20053;-72
2023/12/26 04:37:46;;;;;;;0.25;0.25;;;8.50;84.50;;;;;;5068150;28;20044;-72
2023/12/26 04:40:12;;;;;;;0.08;0.08;;;8.40;84.80;;;;;;5066556;28;20044;-71
2023/12/26 04:42:37;;;;;;;0.00;0.00;;;8.40;84.80;;;;;;5067297;28;20032;-72
2023/12/26 04:45:03;;;;;;;0.00;0.00;;;8.50;84.30;;;;;;5067960;28;20029;-71
2023/12/26 04:47:29;;;;;;;0.00;0.00;;;8.60;84.30;;;;;;5067591;28;20037;-72
2023/12/26 04:49:55;;;;;;;0.00;0.00;;;8.60;84.00;;;;;;5067717;28;20044;-72
2023/12/26 04:52:20;;;;;;;0.00;0.00;;;8.60;83.50;;;;;;5067904;28;20047;-71
2023/12/26 04:54:46;;;;;;;0.05;0.05;;;8.60;83.50;;;;;;5063121;28;20045;-72
2023/12/26 04:57:12;;;;;;;0.00;0.00;;;8.60;83.40;;;;;;5048900;28;20553;-72
2023/12/26 04:59:40;;;;;;;0.10;0.10;;;8.80;83.80;;;;;;5049925;28;20049;-72
2023/12/26 05:02:06;;;;;;;0.20;0.20;;;8.70;83.90;;;;;;5063891;28;20452;-72
2023/12/26 05:04:32;;;;;;;0.00;0.00;;;8.70;84.10;;;;;;5066085;28;20040;-72
2023/12/26 05:06:58;;;;;;;0.00;0.00;;;8.80;84.30;;;;;;5067671;28;20185;-72
2023/12/26 05:09:24;;;;;;;0.00;0.00;;;8.80;84.80;;;;;;5061904;28;20048;-72
2023/12/26 05:11:50;;;;;;;0.00;0.00;;;8.90;84.40;;;;;;5067186;28;20040;-72
2023/12/26 05:14:17;;;;;;;0.10;0.10;;;8.90;84.60;;;;;;5050085;28;20079;-71
2023/12/26 05:16:43;;;;;;;0.00;0.00;;;9.00;84.70;;;;;;5065548;28;20098;-72
2023/12/26 05:19:09;;;;;;;0.00;0.00;;;9.10;84.60;;;;;;5066880;28;20041;-71
2023/12/26 05:21:35;;;;;;;0.00;0.00;;;9.10;84.20;;;;;;5067528;28;20093;-72
2023/12/26 05:24:01;;;;;;;0.00;0.00;;;9.10;84.10;;;;;;5048637;28;20124;-72
2023/12/26 05:26:26;;;;;;;0.00;0.00;;;9.10;84.10;;;;;;5059681;28;20127;-72
2023/12/26 05:28:52;;;;;;;0.00;0.00;;;9.20;83.80;;;;;;5048643;28;20577;-72
2023/12/26 05:31:19;;;;;;;0.00;0.00;;;9.30;83.10;;;;;;5062844;28;20080;-72
2023/12/26 05:33:45;;;;;;;0.10;0.10;;;9.20;83.00;;;;;;5063579;28;20072;-72
2023/12/26 05:36:11;;;;;;;0.00;0.00;;;9.20;82.80;;;;;;5065993;28;20087;-71
2023/12/26 05:38:39;;;;;;;0.00;0.00;;;9.10;82.50;;;;;;5067114;28;20059;-72
2023/12/26 05:41:05;;;;;;;0.00;0.00;;;9.20;82.70;;;;;;5066980;28;20036;-72
2023/12/26 05:43:34;;;;;;;0.00;0.00;;;9.10;82.70;;;;;;5065117;28;20047;-72
2023/12/26 05:46:02;;;;;;;0.90;0.90;;;9.10;82.90;;;;;;5055615;28;20130;-71
2023/12/26 05:48:28;;;;;;;0.00;0.00;;;9.10;82.80;;;;;;5062111;28;20058;-72
2023/12/26 05:50:53;;;;;;;0.20;0.20;;;9.10;82.70;;;;;;5059615;28;20052;-72
2023/12/26 05:53:20;;;;;;;0.00;0.00;;;9.10;82.50;;;;;;5066699;28;20048;-71
2023/12/26 05:55:45;;;;;;;0.00;0.00;;;9.20;82.60;;;;;;5065768;28;20067;-72
2023/12/26 05:58:11;;;;;;;1.75;0.80;;;9.10;82.40;;;;;;5063510;28;20037;-72
2023/12/26 06:00:36;;;;;;;0.00;0.00;;;9.10;82.20;;;;;;5064649;28;20052;-72
2023/12/26 06:03:02;;;;;;;0.00;0.00;;;9.00;82.30;;;;;;5052330;28;20055;-73
2023/12/26 06:05:28;;;;;;;0.00;0.00;;;8.90;82.50;;;;;;5042745;28;20049;-72
2023/12/26 06:07:53;;;;;;;0.00;0.00;;;8.90;82.40;;;;;;5048606;28;20049;-72
2023/12/26 06:10:19;;;;;;;0.10;0.10;;;8.70;82.80;;;;;;5063805;28;20037;-72
2023/12/26 06:12:44;;;;;;;0.00;0.00;;;8.70;83.00;;;;;;5063973;28;20190;-72
2023/12/26 06:15:10;;;;;;;2.03;1.20;;;8.70;83.00;;;;;;5064209;28;20044;-72
2023/12/26 06:17:36;;;;;;;0.05;0.05;;;8.60;83.20;;;;;;5046985;28;20550;-72
2023/12/26 06:20:03;;;;;;;0.35;0.35;;;8.50;83.60;;;;;;5048491;28;20060;-72
2023/12/26 06:22:29;;;;;;;0.08;0.08;;;8.60;83.80;;;;;;5050352;28;20047;-72
2023/12/26 06:24:54;;;;;;;0.00;0.00;;;8.50;83.60;;;;;;5066009;28;20461;-72
2023/12/26 06:27:20;;;;;;;0.00;0.00;;;8.60;83.80;;;;;;5064042;28;20040;-72
2023/12/26 06:29:45;;;;;;;0.00;0.00;;;8.40;84.10;;;;;;5066896;28;20075;-72
2023/12/26 06:32:11;;;;;;;0.43;0.43;;;8.40;84.30;;;;;;5065614;28;20048;-72
2023/12/26 06:34:36;;;;;;;30.80;2.10;;;8.40;84.60;;;;;;5066361;28;20104;-72
2023/12/26 06:37:02;;;;;;;0.00;0.00;;;8.60;84.10;;;;;;5065743;28;20492;-72
2023/12/26 06:39:28;;;;;;;0.00;0.00;;;8.50;84.20;;;;;;5051937;28;20114;-72
2023/12/26 06:41:53;;;;;;;0.00;0.00;;;8.40;84.40;;;;;;5060880;28;20844;-73
2023/12/26 06:44:19;;;;;;;0.00;0.00;;;8.40;84.60;;;;;;5055457;28;20127;-72
2023/12/26 06:46:45;;;;;;;0.00;0.00;;;8.40;84.50;;;;;;5065449;28;20059;-71
2023/12/26 06:49:16;;;;;;;0.00;0.00;;;8.40;84.50;;;;;;5054023;28;20041;-72
2023/12/26 06:51:42;;;;;;;0.65;0.65;;;8.40;84.40;;;;;;5057602;28;20063;-71
2023/12/26 06:54:07;;;;;;;0.00;0.00;;;8.40;84.50;;;;;;5063787;28;20056;-71
2023/12/26 06:56:33;;;;;;;2.40;2.20;;;8.40;84.30;;;;;;5069037;28;20402;-71
2023/12/26 06:58:59;;;;;;;0.00;0.00;;;8.40;83.90;;;;;;5061846;28;20423;-71
2023/12/26 07:01:25;;;;;;;0.00;0.00;;;8.40;84.00;;;;;;5069839;28;20051;-72
2023/12/26 07:03:51;;;;;;;0.00;0.00;;;8.40;84.30;;;;;;5067431;28;20091;-71
2023/12/26 07:06:16;;;;;;;0.00;0.00;;;8.40;84.10;;;;;;5068557;28;20864;-72
2023/12/26 07:08:42;;;;;;;0.03;0.03;;;8.40;84.40;;;;;;5067844;28;20056;-72
2023/12/26 07:11:08;;;;;;;0.00;0.00;;;8.40;84.50;;;;;;5065797;28;20040;-72
2023/12/26 07:13:33;;;;;;;1.45;1.35;;;8.30;84.40;;;;;;5067311;28;20048;-72
2023/12/26 07:15:59;;;;;;;0.00;0.00;;;8.20;84.60;;;;;;5069490;28;20037;-72
2023/12/26 07:18:25;;;;;;;0.00;0.00;;;8.30;84.60;;;;;;5067999;28;20039;-72
2023/12/26 07:20:50;;;;;;;0.00;0.00;;;8.30;84.50;;;;;;5064349;28;20057;-72
2023/12/26 07:23:16;;;;;;;0.00;0.00;;;8.30;84.90;;;;;;5068906;28;20705;-72
2023/12/26 07:25:42;;;;;;;0.10;0.10;;;8.40;84.90;;;;;;5061643;28;20077;-73
2023/12/26 07:28:10;;;;;;;0.00;0.00;;;8.40;85.10;;;;;;5050589;28;20056;-72
2023/12/26 07:30:39;;;;;;;0.40;0.40;;;8.30;85.10;;;;;;5065561;28;20049;-73
2023/12/26 07:33:04;;;;;;;0.00;0.00;;;8.40;85.10;;;;;;5068082;28;20043;-72
2023/12/26 07:35:30;;;;;;;0.00;0.00;;;8.40;84.90;;;;;;5065046;28;20406;-72
2023/12/26 07:37:56;;;;;;;0.00;0.00;;;8.40;84.70;;;;;;5068123;28;20040;-72
2023/12/26 07:40:22;;;;;;;0.35;0.35;;;8.40;84.70;;;;;;5068301;28;20055;-71
2023/12/26 07:42:47;;;;;;;0.10;0.10;;;8.50;84.80;;;;;;5049376;28;20040;-72
2023/12/26 07:45:13;;;;;;;0.15;0.15;;;8.50;84.80;;;;;;5050022;28;20138;-72
2023/12/26 07:47:39;;;;;;;0.68;0.63;;;8.60;84.60;;;;;;5067551;28;20109;-71
2023/12/26 07:50:05;;;;;;;0.00;0.00;;;8.50;84.60;;;;;;5048462;28;20044;-72
2023/12/26 07:52:30;;;;;;;6.10;1.67;;;8.60;84.60;;;;;;5066509;28;20041;-72
2023/12/26 07:54:56;;;;;;;12.68;1.70;;;8.60;84.50;;;;;;5067088;28;20056;-72
2023/12/26 07:57:21;;;;;;;3.72;1.25;;;8.60;84.30;;;;;;5065849;28;20154;-72
2023/12/26 07:59:47;;;;;;;0.00;0.00;;;8.60;84.30;;;;;;5062595;28;20076;-70
2023/12/26 08:02:13;;;;;;;0.00;0.00;;;8.60;84.00;;;;;;5064427;28;20490;-71
2023/12/26 08:04:38;;;;;;;0.20;0.20;;;8.60;84.10;;;;;;5066072;28;20056;-71
2023/12/26 08:07:06;;;;;;;0.00;0.00;;;8.60;83.90;;;;;;5065303;28;20028;-71
2023/12/26 08:09:31;;;;;;;0.00;0.00;;;8.60;83.80;;;;;;5061630;28;20056;-71
2023/12/26 08:11:57;;;;;;;4.03;2.28;;;8.60;83.80;;;;;;5047852;28;20093;-72
2023/12/26 08:14:22;;;;;;;0.00;0.00;;;8.60;83.80;;;;;;5047056;28;20052;-71
2023/12/26 08:16:48;;;;;;;0.00;0.00;;;8.60;84.10;;;;;;5065877;28;20071;-71
2023/12/26 08:19:14;;;;;;;0.10;0.10;;;8.60;83.90;;;;;;5067074;28;20061;-72
2023/12/26 08:21:39;;;;;;;0.80;0.80;;;8.70;84.00;;;;;;5049658;28;20055;-71
2023/12/26 08:24:07;;;;;;;0.32;0.32;;;8.60;83.90;;;;;;5067127;28;20106;-71
2023/12/26 08:26:33;;;;;;;3.17;2.20;;;8.60;84.00;;;;;;5056233;28;20094;-72
2023/12/26 08:28:59;;;;;;;1.55;1.45;;;8.60;84.10;;;;;;5067261;28;20052;-71
2023/12/26 08:31:25;;;;;;;0.55;0.55;;;8.70;84.10;;;;;;5065746;28;20040;-71
2023/12/26 08:33:50;;;;;;;0.08;0.08;;;8.70;83.80;;;;;;5064908;28;20528;-71
2023/12/26 08:36:16;;;;;;;0.00;0.00;;;8.80;83.20;;;;;;5049362;28;20079;-71
2023/12/26 08:38:43;;;;;;;0.00;0.00;;;8.80;83.00;;;;;;5063491;28;20052;-71
2023/12/26 08:41:11;;;;;;;0.45;0.45;;;8.90;82.80;;;;;;5063028;28;20051;-71
2023/12/26 08:43:37;;;;;;;0.20;0.20;;;8.80;82.50;;;;;;5061092;28;20526;-71
2023/12/26 08:46:03;;;;;;;0.00;0.00;;;8.90;82.90;;;;;;5048851;28;20044;-72
2023/12/26 08:48:29;;;;;;;0.00;0.00;;;8.80;82.70;;;;;;5062934;28;20458;-71
2023/12/26 08:50:54;;;;;;;0.43;0.43;;;8.70;82.70;;;;;;5058885;28;20051;-72
2023/12/26 08:53:20;;;;;;;7.05;4.57;;;8.70;82.50;;;;;;5064604;28;20079;-71
2023/12/26 08:55:47;;;;;;;0.00;0.00;;;8.70;82.50;;;;;;5065787;28;20043;-75
2023/12/26 08:58:14;;;;;;;0.05;0.05;;;8.60;82.40;;;;;;5066430;28;20402;-70
2023/12/26 09:00:40;;;;;;;0.00;0.00;;;8.60;82.70;;;;;;5064705;28;20713;-73
2023/12/26 09:03:07;;;;;;;0.10;0.10;;;8.80;82.40;;;;;;5065947;28;20064;-71
2023/12/26 09:05:33;;;;;;;0.00;0.00;;;8.70;82.30;;;;;;5064281;28;20043;-71
2023/12/26 09:07:59;;;;;;;0.03;0.03;;;8.70;82.20;;;;;;5046405;28;20048;-71
2023/12/26 09:10:25;;;;;;;0.20;0.20;;;8.70;82.30;;;;;;5065543;28;20057;-71
2023/12/26 09:12:50;;;;;;;0.00;0.00;;;8.80;82.30;;;;;;5067049;28;20144;-70
2023/12/26 09:15:16;;;;;;;0.00;0.00;;;8.80;81.80;;;;;;5065765;28;20091;-72
2023/12/26 09:17:43;;;;;;;0.20;0.20;;;8.70;82.10;;;;;;5061086;28;20040;-73
2023/12/26 09:20:09;;;;;;;0.00;0.00;;;8.80;82.10;;;;;;5048095;28;20127;-70
2023/12/26 09:22:35;;;;;;;0.00;0.00;;;8.80;82.00;;;;;;5063397;28;20044;-70
2023/12/26 09:25:01;;;;;;;1.27;1.17;;;8.80;82.30;;;;;;5048203;28;20155;-70
2023/12/26 09:27:26;;;;;;;0.00;0.00;;;8.80;82.30;;;;;;5056691;28;20040;-70
2023/12/26 09:29:52;;;;;;;0.00;0.00;;;8.80;82.00;;;;;;5044300;28;20523;-71
2023/12/26 09:32:18;;;;;;;0.00;0.00;;;8.80;81.90;;;;;;5047226;28;20041;-70
2023/12/26 09:34:43;;;;;;;0.00;0.00;;;8.90;81.90;;;;;;5066640;28;20061;-71
2023/12/26 09:37:09;;;;;;;0.00;0.00;;;8.80;82.00;;;;;;5059873;28;20643;-70
2023/12/26 09:39:34;;;;;;;0.00;0.00;;;8.80;81.90;;;;;;5062316;28;20055;-71
2023/12/26 09:42:03;;;;;;;0.00;0.00;;;8.80;81.80;;;;;;5047168;28;20044;-66
2023/12/26 09:44:29;;;;;;;0.00;0.00;;;8.90;82.30;;;;;;5046825;28;20550;-70
2023/12/26 09:46:54;;;;;;;0.35;0.35;;;8.80;81.70;;;;;;5063864;28;20049;-70
2023/12/26 09:49:20;;;;;;;0.00;0.00;;;8.90;82.00;;;;;;5047019;28;20083;-69
2023/12/26 09:51:48;;;;;;;0.40;0.40;;;8.90;82.10;;;;;;5057777;28;20049;-69
2023/12/26 09:54:17;;;;;;;6.13;1.38;;;9.00;81.50;;;;;;5064405;28;20551;-70
2023/12/26 09:56:45;;;;;;;0.20;0.20;;;9.10;81.20;;;;;;5045077;28;20040;-70
2023/12/26 09:59:12;;;;;;;0.00;0.00;;;9.10;81.10;;;;;;5056296;28;20144;-70
2023/12/26 10:01:38;;;;;;;5.82;3.40;;;9.10;81.30;;;;;;5047042;28;20411;-69
2023/12/26 10:04:05;;;;;;;0.00;0.00;;;9.10;81.20;;;;;;5059377;28;20040;-69
2023/12/26 10:06:31;;;;;;;0.00;0.00;;;9.20;80.70;;;;;;5066432;28;20050;-72
2023/12/26 10:08:57;;;;;;;0.00;0.00;;;9.10;81.20;;;;;;5042086;28;20487;-69
2023/12/26 10:11:23;;;;;;;0.00;0.00;;;9.10;81.30;;;;;;5055493;28;20044;-71
2023/12/26 10:13:55;;;;;;;0.00;0.00;;;9.10;81.00;;;;;;5059444;28;20157;-69
2023/12/26 10:16:21;;;;;;;0.00;0.00;;;9.10;81.20;;;;;;5052933;28;20542;-70
2023/12/26 10:18:50;;;;;;;0.10;0.10;;;9.00;81.10;;;;;;5059360;28;20055;-69
2023/12/26 10:21:15;;;;;;;0.00;0.00;;;9.00;81.20;;;;;;5055610;28;20602;-69
2023/12/26 10:23:41;;;;;;;0.00;0.00;;;9.10;81.40;;;;;;5057970;28;20044;-70
2023/12/26 10:26:07;;;;;;;0.10;0.10;;;9.10;81.20;;;;;;5066637;28;20056;-70
2023/12/26 10:28:37;;;;;;;0.00;0.00;;;9.10;81.30;;;;;;5053430;28;20094;-70
2023/12/26 10:31:11;;;;;;;3.25;0.75;;;9.10;81.60;;;;;;5064956;28;20534;-70
2023/12/26 10:33:37;;;;;;;0.00;0.00;;;9.10;81.10;;;;;;5065664;28;20101;-70
2023/12/26 10:36:07;;;;;;;0.00;0.00;;;9.10;81.40;;;;;;5070985;28;20061;-70
2023/12/26 10:38:34;;;;;;;0.82;0.82;;;9.10;81.40;;;;;;5050238;28;20558;-69
2023/12/26 10:41:03;;;;;;;0.00;0.00;;;9.10;81.60;;;;;;5070720;28;20106;-69
2023/12/26 10:43:29;;;;;;;0.00;0.00;;;9.20;81.50;;;;;;5065892;28;20056;-69
2023/12/26 10:45:59;;;;;;;0.00;0.00;;;9.20;81.10;;;;;;5069790;28;20430;-71
2023/12/26 10:48:31;;;;;;;0.00;0.00;;;9.20;81.80;;;;;;5068303;28;20113;-69
2023/12/26 10:50:59;;;;;;;0.00;0.00;;;9.30;81.80;;;;;;5069982;28;20049;-69
2023/12/26 10:53:38;;;;;;;0.20;0.20;;;9.40;81.70;;;;;;5067560;28;20083;-70
2023/12/26 10:56:05;;;;;;;0.00;0.00;;;9.30;81.20;;;;;;5051100;28;20064;-71
2023/12/26 10:58:32;;;;;;;0.00;0.00;;;9.20;81.50;;;;;;5065069;28;20139;-70
2023/12/26 11:00:58;;;;;;;0.03;0.03;;;9.40;81.50;;;;;;5068105;28;20080;-70
2023/12/26 11:03:25;;;;;;;0.30;0.30;;;9.30;81.00;;;;;;5066600;28;20111;-70
2023/12/26 11:05:51;;;;;;;0.00;0.00;;;9.30;81.40;;;;;;5067369;28;20673;-74
2023/12/26 11:08:17;;;;;;;1.27;1.05;;;9.20;81.50;;;;;;5030951;28;20115;-69
2023/12/26 11:10:43;;;;;;;0.08;0.08;;;9.20;81.50;;;;;;5063839;28;20044;-73
2023/12/26 11:13:09;;;;;;;0.00;0.00;;;9.30;81.70;;;;;;5065141;28;20054;-70
2023/12/26 11:15:35;;;;;;;0.00;0.00;;;9.20;81.70;;;;;;5063191;28;20040;-70
2023/12/26 11:18:01;;;;;;;0.00;0.00;;;9.20;82.10;;;;;;5066973;28;20064;-69
2023/12/26 11:20:27;;;;;;;0.00;0.00;;;9.30;82.20;;;;;;5053931;28;20403;-70
2023/12/26 11:22:53;;;;;;;0.00;0.00;;;9.20;82.30;;;;;;5052088;28;20040;-70
2023/12/26 11:25:19;;;;;;;0.15;0.15;;;9.20;82.20;;;;;;5056048;28;20558;-72
2023/12/26 11:27:45;;;;;;;0.00;0.00;;;9.20;82.50;;;;;;5064547;28;20048;-70
2023/12/26 11:30:10;;;;;;;0.80;0.30;;;9.30;82.30;;;;;;5063718;28;20043;-67
2023/12/26 11:32:37;;;;;;;0.00;0.00;;;9.30;82.00;;;;;;5067033;28;20044;-69
2023/12/26 11:35:02;;;;;;;2.72;1.88;;;9.30;82.20;;;;;;5063205;28;20144;-67
2023/12/26 11:37:28;;;;;;;0.00;0.00;;;9.30;82.40;;;;;;5065455;28;20166;-67
2023/12/26 11:39:54;;;;;;;0.10;0.10;;;9.30;82.50;;;;;;5065540;28;20047;-66
2023/12/26 11:42:19;;;;;;;0.05;0.05;;;9.30;82.60;;;;;;5067652;28;20409;-67
2023/12/26 11:44:45;;;;;;;0.10;0.10;;;9.30;83.00;;;;;;5068298;28;20059;-67
2023/12/26 11:47:11;;;;;;;0.00;0.00;;;9.30;82.60;;;;;;5049219;28;20041;-67
2023/12/26 11:49:37;;;;;;;0.00;0.00;;;9.50;82.50;;;;;;5067501;28;20037;-68
2023/12/26 11:52:02;;;;;;;0.10;0.10;;;9.50;82.10;;;;;;5065483;28;20098;-67
2023/12/26 11:54:28;;;;;;;0.00;0.00;;;9.40;82.20;;;;;;5049950;28;20048;-67
2023/12/26 11:56:54;;;;;;;0.00;0.00;;;9.40;82.30;;;;;;5066747;28;20037;-68
2023/12/26 11:59:20;;;;;;;0.00;0.00;;;9.40;82.50;;;;;;5047810;28;20048;-67
2023/12/26 12:01:45;;;;;;;1.15;0.90;;;9.40;82.20;;;;;;5049207;28;20032;-68
2023/12/26 12:04:11;;;;;;;0.00;0.00;;;9.40;82.10;;;;;;5062779;28;20093;-68
2023/12/26 12:06:37;;;;;;;0.00;0.00;;;9.40;82.50;;;;;;5067352;28;20133;-68
2023/12/26 12:09:04;;;;;;;0.20;0.20;;;9.30;82.30;;;;;;5067797;28;20045;-68
2023/12/26 12:11:29;;;;;;;1.75;0.98;;;9.50;82.20;;;;;;5064337;28;20033;-68
2023/12/26 12:13:55;;;;;;;0.00;0.00;;;9.50;82.00;;;;;;5065468;28;20049;-68
2023/12/26 12:16:22;;;;;;;1.10;1.05;;;9.40;82.30;;;;;;5061118;28;20049;-68
2023/12/26 12:18:59;;;;;;;0.43;0.43;;;9.50;81.80;;;;;;5058710;28;20052;-68
2023/12/26 12:21:37;;;;;;;0.40;0.40;;;9.40;82.30;;;;;;5066884;28;20047;-68
2023/12/26 12:24:04;;;;;;;0.28;0.25;;;9.30;82.70;;;;;;5067458;28;20040;-69
2023/12/26 12:27:04;;;;;;;2.10;1.55;;;9.30;82.90;;;;;;5065550;28;20048;-68
2023/12/26 12:29:57;;;;;;;0.00;0.00;;;9.20;83.30;;;;;;5064561;28;20044;-68
2023/12/26 12:32:29;;;;;;;1.30;1.27;;;9.30;83.40;;;;;;5058138;28;20048;-69
2023/12/26 12:35:13;;;;;;;;;;;9.20;83.50;;;;;;5067687;28;20044;-69
2023/12/26 12:37:39;;;;;;;0.30;0.30;;;9.10;84.90;;;;;;5064235;28;20395;-68
2023/12/26 12:40:05;;;;;;;0.00;0.00;;;9.10;85.50;;;;;;5061542;28;20040;-70
2023/12/26 12:42:34;;;;;;;0.00;0.00;;;9.00;84.80;;;;;;5058998;28;20036;-69
2023/12/26 12:45:00;;;;;;;0.10;0.10;;;8.80;85.60;;;;;;5066325;28;20098;-68
2023/12/26 12:47:26;;;;;;;0.10;0.10;;;8.70;85.70;;;;;;5059597;28;20052;-69
2023/12/26 12:49:54;;;;;;;0.00;0.00;;;8.60;85.80;;;;;;5066390;28;20056;-69
2023/12/26 12:52:20;;;;;;;0.08;0.08;;;8.60;85.70;;;;;;5065708;28;20141;-72
2023/12/26 12:54:45;;;;;;;0.40;0.40;;;8.70;86.10;;;;;;5064277;28;20438;-70